createdAt,value
2018-03-16T00:02:26.777Z,8.30
2018-03-16T00:04:53.585Z,8.30
2018-03-16T00:07:20.687Z,8.40
2018-03-16T00:09:47.844Z,8.40
2018-03-16T00:12:14.077Z,8.50
2018-03-16T00:14:40.244Z,8.40
2018-03-16T00:17:06.374Z,8.10
2018-03-16T00:19:32.509Z,8.40
2018-03-16T00:21:58.648Z,8.30
2018-03-16T00:24:25.937Z,8.20
2018-03-16T00:26:52.560Z,8.20
2018-03-16T00:29:22.143Z,8.40
2018-03-16T00:31:49.482Z,8.30
2018-03-16T00:34:18.241Z,8.10
2018-03-16T00:36:45.104Z,8.20
2018-03-16T00:39:11.700Z,8.20
2018-03-16T00:41:38.745Z,8.20
2018-03-16T00:44:05.105Z,8.10
2018-03-16T00:46:31.239Z,8.10
2018-03-16T00:48:57.448Z,8.10
2018-03-16T00:51:23.770Z,8.10
2018-03-16T00:54:03.889Z,8.10
2018-03-16T00:56:30.281Z,8.00
2018-03-16T00:58:58.427Z,8.30
2018-03-16T01:01:26.070Z,8.20
2018-03-16T01:03:58.291Z,8.00
2018-03-16T01:06:27.533Z,7.70
2018-03-16T01:08:58.102Z,8.20
2018-03-16T01:11:24.757Z,8.10
2018-03-16T01:13:53.571Z,8.00
2018-03-16T01:16:23.704Z,8.00
2018-03-16T01:18:59.023Z,8.00
2018-03-16T01:21:26.554Z,8.00
2018-03-16T01:23:53.307Z,8.30
2018-03-16T01:26:20.216Z,8.40
2018-03-16T01:28:47.797Z,8.20
2018-03-16T01:31:15.300Z,8.00
2018-03-16T01:33:43.922Z,8.00
2018-03-16T01:36:12.447Z,7.90
2018-03-16T01:38:43.302Z,8.20
2018-03-16T01:44:02.529Z,7.90
2018-03-16T01:46:29.621Z,7.90
2018-03-16T01:48:58.503Z,7.80
2018-03-16T01:51:27.294Z,7.80
2018-03-16T01:53:55.053Z,7.70
2018-03-16T01:56:21.330Z,7.70
2018-03-16T01:58:47.603Z,7.70
2018-03-16T02:01:14.004Z,7.70
2018-03-16T02:03:40.279Z,7.70
2018-03-16T02:06:07.321Z,7.50
2018-03-16T02:08:33.602Z,7.50
2018-03-16T02:11:00.603Z,7.50
2018-03-16T02:13:27.252Z,7.40
2018-03-16T02:15:53.544Z,7.40
2018-03-16T02:18:19.825Z,7.50
2018-03-16T02:20:46.158Z,7.40
2018-03-16T02:23:12.441Z,7.40
2018-03-16T02:25:38.730Z,7.40
2018-03-16T02:28:05.765Z,7.40
2018-03-16T02:30:32.068Z,7.40
2018-03-16T02:32:59.173Z,7.40
2018-03-16T02:35:25.261Z,7.40
2018-03-16T02:37:51.369Z,7.50
2018-03-16T02:40:17.680Z,7.40
2018-03-16T02:42:45.460Z,7.50
2018-03-16T02:45:11.573Z,7.40
2018-03-16T02:47:37.876Z,7.30
2018-03-16T02:50:04.167Z,7.40
2018-03-16T02:52:30.603Z,7.50
2018-03-16T02:54:56.880Z,7.60
2018-03-16T02:57:23.348Z,7.60
2018-03-16T02:59:50.391Z,7.50
2018-03-16T03:02:16.831Z,7.50
2018-03-16T03:04:43.134Z,7.70
2018-03-16T03:07:09.434Z,7.50
2018-03-16T03:09:35.739Z,7.50
2018-03-16T03:12:02.033Z,7.50
2018-03-16T03:14:28.447Z,7.50
2018-03-16T03:16:56.971Z,7.60
2018-03-16T03:19:23.250Z,7.10
2018-03-16T03:21:49.546Z,7.50
2018-03-16T03:24:15.892Z,7.50
2018-03-16T03:26:42.179Z,7.40
2018-03-16T03:29:08.962Z,7.50
2018-03-16T03:31:35.258Z,7.40
2018-03-16T03:34:01.545Z,7.40
2018-03-16T03:36:27.850Z,7.50
2018-03-16T03:38:54.891Z,7.50
2018-03-16T03:41:21.200Z,7.50
2018-03-16T03:43:47.308Z,7.40
2018-03-16T03:46:14.370Z,7.50
2018-03-16T03:48:41.224Z,7.50
2018-03-16T03:51:09.682Z,7.50
2018-03-16T03:53:35.764Z,7.50
2018-03-16T03:56:02.603Z,7.40
2018-03-16T03:58:28.784Z,7.40
2018-03-16T04:00:54.896Z,7.30
2018-03-16T04:03:21.000Z,7.40
2018-03-16T04:05:47.096Z,7.40
2018-03-16T04:08:13.961Z,7.40
2018-03-16T04:10:40.172Z,7.40
2018-03-16T04:13:06.245Z,7.40
2018-03-16T04:15:33.064Z,7.30
2018-03-16T04:17:59.188Z,7.30
2018-03-16T04:20:25.327Z,7.20
2018-03-16T04:22:51.440Z,7.20
2018-03-16T04:25:17.507Z,7.30
2018-03-16T04:27:43.595Z,7.30
2018-03-16T04:30:10.417Z,7.20
2018-03-16T04:32:36.513Z,7.20
2018-03-16T04:35:02.614Z,7.20
2018-03-16T04:37:29.564Z,7.10
2018-03-16T04:39:55.724Z,7.10
2018-03-16T04:42:21.813Z,7.10
2018-03-16T04:44:47.940Z,7.10
2018-03-16T04:47:14.158Z,7.20
2018-03-16T04:49:40.372Z,7.20
2018-03-16T04:52:06.666Z,7.20
2018-03-16T04:54:32.807Z,7.20
2018-03-16T04:56:59.293Z,7.20
2018-03-16T04:59:25.382Z,7.10
2018-03-16T05:01:52.420Z,7.00
2018-03-16T05:04:18.498Z,7.00
2018-03-16T05:06:44.607Z,7.10
2018-03-16T05:09:10.749Z,7.10
2018-03-16T05:11:36.832Z,7.00
2018-03-16T05:14:02.945Z,6.90
2018-03-16T05:16:29.778Z,7.10
2018-03-16T05:18:56.656Z,7.00
2018-03-16T05:21:22.751Z,6.90
2018-03-16T05:23:49.601Z,7.00
2018-03-16T05:26:16.284Z,6.90
2018-03-16T05:28:42.364Z,7.00
2018-03-16T05:31:09.255Z,7.00
2018-03-16T05:33:35.667Z,7.00
2018-03-16T05:36:02.025Z,7.00
2018-03-16T05:38:29.212Z,6.90
2018-03-16T05:40:55.523Z,6.90
2018-03-16T05:43:22.842Z,6.90
2018-03-16T05:45:48.950Z,6.90
2018-03-16T05:48:15.266Z,6.90
2018-03-16T05:50:42.288Z,6.80
2018-03-16T05:53:08.390Z,6.90
2018-03-16T05:55:34.465Z,6.50
2018-03-16T05:58:00.771Z,6.80
2018-03-16T06:00:27.048Z,6.80
2018-03-16T06:02:53.322Z,6.80
2018-03-16T06:05:19.632Z,6.80
2018-03-16T06:07:45.742Z,6.80
2018-03-16T06:10:12.077Z,6.90
2018-03-16T06:12:38.424Z,6.60
2018-03-16T06:15:04.758Z,6.80
2018-03-16T06:17:31.781Z,6.80
2018-03-16T06:19:58.073Z,6.80
2018-03-16T06:22:24.348Z,6.80
2018-03-16T06:24:50.758Z,6.70
2018-03-16T06:27:17.066Z,6.70
2018-03-16T06:29:44.228Z,6.70
2018-03-16T06:32:10.525Z,6.70
2018-03-16T06:34:36.875Z,6.70
2018-03-16T06:37:03.176Z,6.70
2018-03-16T06:39:30.210Z,6.80
2018-03-16T06:41:56.292Z,6.80
2018-03-16T06:44:23.110Z,6.60
2018-03-16T06:46:49.219Z,6.60
2018-03-16T06:49:15.306Z,6.70
2018-03-16T06:51:42.162Z,6.70
2018-03-16T06:54:08.258Z,6.70
2018-03-16T06:56:34.362Z,6.70
2018-03-16T06:59:00.472Z,6.70
2018-03-16T07:01:26.558Z,6.30
2018-03-16T07:03:52.644Z,6.60
2018-03-16T07:06:18.758Z,6.70
2018-03-16T07:08:44.908Z,6.20
2018-03-16T07:11:11.227Z,6.60
2018-03-16T07:13:37.309Z,6.50
2018-03-16T07:16:03.599Z,6.50
2018-03-16T07:18:37.593Z,6.50
2018-03-16T07:21:04.541Z,6.60
2018-03-16T07:23:31.377Z,6.60
2018-03-16T07:25:57.464Z,6.60
2018-03-16T07:28:23.568Z,6.50
2018-03-16T07:30:49.744Z,6.60
2018-03-16T07:33:16.564Z,6.50
2018-03-16T07:35:42.660Z,6.50
2018-03-16T07:38:08.763Z,6.50
2018-03-16T07:40:34.901Z,6.50
2018-03-16T07:43:00.983Z,6.40
2018-03-16T07:45:33.324Z,6.40
2018-03-16T07:47:59.928Z,6.50
2018-03-16T07:50:26.031Z,6.50
2018-03-16T07:52:52.858Z,6.40
2018-03-16T07:55:18.975Z,6.50
2018-03-16T07:57:45.476Z,6.40
2018-03-16T08:00:11.610Z,6.30
2018-03-16T08:02:40.923Z,6.30
2018-03-16T08:05:07.840Z,6.30
2018-03-16T08:07:33.931Z,6.30
2018-03-16T08:10:00.793Z,6.30
2018-03-16T08:12:26.894Z,6.30
2018-03-16T08:14:53.009Z,6.30
2018-03-16T08:17:19.185Z,5.70
2018-03-16T08:19:45.685Z,6.40
2018-03-16T08:22:12.272Z,6.30
2018-03-16T08:24:38.393Z,6.30
2018-03-16T08:27:05.496Z,6.30
2018-03-16T08:29:31.943Z,6.30
2018-03-16T08:31:58.049Z,6.40
2018-03-16T08:34:24.146Z,6.20
2018-03-16T08:36:50.994Z,6.10
2018-03-16T08:39:18.011Z,6.10
2018-03-16T08:41:44.153Z,6.10
2018-03-16T08:44:10.332Z,6.00
2018-03-16T08:46:36.439Z,6.10
2018-03-16T08:49:02.649Z,6.10
2018-03-16T08:51:28.788Z,6.10
2018-03-16T08:53:54.892Z,6.20
2018-03-16T08:56:21.027Z,6.20
2018-03-16T08:58:47.913Z,6.20
2018-03-16T09:01:14.816Z,6.20
2018-03-16T09:03:41.004Z,6.20
2018-03-16T09:06:07.873Z,6.20
2018-03-16T09:08:34.039Z,6.10
2018-03-16T09:11:00.194Z,6.50
2018-03-16T09:13:26.264Z,6.10
2018-03-16T09:15:52.374Z,6.10
2018-03-16T09:18:18.704Z,6.20
2018-03-16T09:20:44.986Z,6.20
2018-03-16T09:23:14.028Z,6.30
2018-03-16T09:25:40.340Z,6.30
2018-03-16T09:28:06.647Z,6.40
2018-03-16T09:30:32.972Z,6.40
2018-03-16T09:32:59.227Z,6.40
2018-03-16T09:35:26.305Z,6.50
2018-03-16T09:37:53.441Z,6.50
2018-03-16T09:40:20.301Z,6.50
2018-03-16T09:42:46.392Z,6.50
2018-03-16T09:45:12.525Z,6.50
2018-03-16T09:47:38.852Z,6.60
2018-03-16T09:50:16.162Z,6.50
2018-03-16T09:52:42.272Z,6.50
2018-03-16T09:55:23.393Z,6.50
2018-03-16T09:57:49.502Z,6.40
2018-03-16T10:00:15.625Z,6.40
2018-03-16T10:02:41.756Z,6.40
2018-03-16T10:05:07.858Z,6.40
2018-03-16T10:07:33.965Z,6.40
2018-03-16T10:10:00.077Z,6.50
2018-03-16T10:12:26.905Z,6.60
2018-03-16T10:14:53.019Z,6.60
2018-03-16T10:17:19.095Z,6.70
2018-03-16T10:19:45.186Z,6.70
2018-03-16T10:22:11.290Z,6.70
2018-03-16T10:24:38.178Z,6.80
2018-03-16T10:27:04.329Z,6.80
2018-03-16T10:29:30.412Z,6.90
2018-03-16T10:31:56.488Z,6.90
2018-03-16T10:34:22.555Z,6.90
2018-03-16T10:36:48.635Z,6.80
2018-03-16T10:39:15.464Z,6.90
2018-03-16T10:41:41.560Z,6.90
2018-03-16T10:44:07.826Z,7.00
2018-03-16T10:46:33.944Z,7.10
2018-03-16T10:49:00.074Z,7.10
2018-03-16T10:51:26.165Z,7.10
2018-03-16T10:53:52.250Z,7.10
2018-03-16T10:56:18.336Z,7.10
2018-03-16T10:58:44.595Z,7.20
2018-03-16T11:01:17.288Z,7.10
2018-03-16T11:03:45.454Z,7.00
2018-03-16T11:06:11.561Z,7.10
2018-03-16T11:08:39.980Z,7.10
2018-03-16T11:11:06.075Z,7.20
2018-03-16T11:13:32.385Z,7.10
2018-03-16T11:15:59.231Z,7.00
2018-03-16T11:18:25.483Z,7.00
2018-03-16T11:20:51.764Z,6.80
2018-03-16T11:23:17.870Z,7.10
2018-03-16T11:25:44.746Z,7.20
2018-03-16T11:28:10.836Z,7.20
2018-03-16T11:30:36.939Z,7.20
2018-03-16T11:33:03.052Z,7.10
2018-03-16T11:35:29.888Z,7.20
2018-03-16T11:37:56.201Z,7.10
2018-03-16T11:40:22.291Z,7.20
2018-03-16T11:42:49.108Z,7.10
2018-03-16T11:45:15.204Z,7.20
2018-03-16T11:47:42.194Z,7.10
2018-03-16T11:50:08.432Z,7.10
2018-03-16T11:52:35.506Z,7.10
2018-03-16T11:55:01.711Z,7.10
2018-03-16T11:57:27.849Z,7.00
2018-03-16T11:59:54.061Z,7.10
2018-03-16T12:02:20.912Z,7.30
2018-03-16T12:04:47.658Z,7.20
2018-03-16T12:07:14.569Z,7.10
2018-03-16T12:09:40.668Z,7.10
2018-03-16T12:12:09.212Z,7.10
2018-03-16T12:14:35.297Z,7.00
2018-03-16T12:17:02.156Z,7.10
2018-03-16T12:19:29.021Z,7.10
2018-03-16T12:21:55.877Z,7.00
2018-03-16T12:24:22.004Z,7.00
2018-03-16T12:26:48.847Z,7.10
2018-03-16T12:29:14.979Z,7.00
2018-03-16T12:31:41.063Z,7.20
2018-03-16T12:34:08.083Z,7.10
2018-03-16T12:36:34.183Z,7.20
2018-03-16T12:39:01.353Z,7.20
2018-03-16T12:41:27.454Z,7.20
2018-03-16T12:43:53.577Z,7.10
2018-03-16T12:46:19.724Z,7.10
2018-03-16T12:48:45.872Z,7.00
2018-03-16T12:51:12.712Z,6.90
2018-03-16T12:53:38.815Z,6.90
2018-03-16T12:56:04.917Z,6.90
2018-03-16T12:58:31.778Z,6.80
2018-03-16T13:00:58.636Z,6.80
2018-03-16T13:03:25.540Z,6.70
2018-03-16T13:05:51.663Z,6.70
2018-03-16T13:08:17.896Z,6.80
2018-03-16T13:10:44.001Z,6.80
2018-03-16T13:13:10.116Z,6.80
2018-03-16T13:15:36.967Z,6.80
2018-03-16T13:18:03.103Z,6.80
2018-03-16T13:20:29.199Z,6.70
2018-03-16T13:22:57.297Z,6.70
2018-03-16T13:25:25.695Z,6.70
2018-03-16T13:27:51.878Z,6.70
2018-03-16T13:30:18.782Z,6.70
2018-03-16T13:32:44.884Z,6.70
2018-03-16T13:35:10.984Z,6.60
2018-03-16T13:37:37.074Z,6.50
2018-03-16T13:40:03.892Z,6.50
2018-03-16T13:42:29.980Z,6.40
2018-03-16T13:44:56.360Z,6.40
2018-03-16T13:47:22.487Z,6.40
2018-03-16T13:49:48.746Z,6.30
2018-03-16T13:52:14.949Z,6.30
2018-03-16T13:54:40.981Z,6.30
2018-03-16T13:57:07.817Z,6.30
2018-03-16T13:59:33.971Z,6.30
2018-03-16T14:02:00.067Z,6.10
2018-03-16T14:04:26.145Z,6.20
2018-03-16T14:06:52.236Z,6.20
2018-03-16T14:09:19.998Z,6.20
2018-03-16T14:11:46.082Z,6.20
2018-03-16T14:14:12.308Z,6.30
2018-03-16T14:16:38.764Z,6.30
2018-03-16T14:19:04.973Z,6.20
2018-03-16T14:21:32.341Z,6.20
2018-03-16T14:23:58.568Z,6.10
2018-03-16T14:26:24.841Z,6.00
2018-03-16T14:28:52.548Z,6.10
2018-03-16T14:31:18.636Z,6.10
2018-03-16T14:33:44.815Z,6.00
2018-03-16T14:36:11.876Z,6.00
2018-03-16T14:38:38.746Z,6.00
2018-03-16T14:41:04.836Z,5.90
2018-03-16T14:43:30.920Z,6.00
2018-03-16T14:45:57.011Z,5.90
2018-03-16T14:48:23.856Z,5.80
2018-03-16T14:50:50.716Z,5.80
2018-03-16T14:53:17.108Z,5.80
2018-03-16T14:55:43.175Z,5.80
2018-03-16T14:58:09.323Z,5.80
2018-03-16T15:00:36.145Z,5.70
2018-03-16T15:03:04.528Z,5.80
2018-03-16T15:05:31.372Z,5.60
2018-03-16T15:07:57.441Z,5.60
2018-03-16T15:10:23.549Z,5.50
2018-03-16T15:12:50.563Z,5.50
2018-03-16T15:15:16.780Z,5.40
2018-03-16T15:17:44.304Z,5.40
2018-03-16T15:20:10.668Z,5.40
2018-03-16T15:22:37.502Z,5.50
2018-03-16T15:25:03.584Z,5.50
2018-03-16T15:27:29.688Z,5.50
2018-03-16T15:29:55.906Z,5.50
2018-03-16T15:32:22.057Z,5.40
2018-03-16T15:34:48.157Z,5.50
2018-03-16T15:37:14.256Z,5.40
2018-03-16T15:39:40.373Z,5.30
2018-03-16T15:42:08.348Z,5.30
2018-03-16T15:44:34.441Z,5.10
2018-03-16T15:47:01.277Z,5.20
2018-03-16T15:49:27.395Z,5.10
2018-03-16T15:51:53.485Z,5.10
2018-03-16T15:54:20.364Z,5.00
2018-03-16T15:56:46.465Z,5.00
2018-03-16T15:59:12.575Z,5.10
2018-03-16T16:01:38.656Z,5.00
2018-03-16T16:04:04.828Z,5.00
2018-03-16T16:06:31.352Z,5.00
2018-03-16T16:08:57.440Z,4.90
2018-03-16T16:11:23.649Z,4.90
2018-03-16T16:13:49.773Z,4.80
2018-03-16T16:16:15.905Z,4.70
2018-03-16T16:18:42.008Z,4.70
2018-03-16T16:21:08.148Z,4.70
2018-03-16T16:23:34.232Z,4.80
2018-03-16T16:26:00.354Z,4.80
2018-03-16T16:28:27.997Z,4.80
2018-03-16T16:30:54.185Z,4.70
2018-03-16T16:33:20.610Z,4.60
2018-03-16T16:35:47.572Z,4.50
2018-03-16T16:38:14.404Z,4.50
2018-03-16T16:40:40.496Z,4.50
2018-03-16T16:43:07.317Z,4.20
2018-03-16T16:45:33.415Z,4.20
2018-03-16T16:48:06.992Z,4.10
2018-03-16T16:50:33.080Z,4.10
2018-03-16T16:52:59.205Z,4.20
2018-03-16T16:55:25.325Z,4.20
2018-03-16T16:57:51.443Z,4.20
2018-03-16T17:00:18.286Z,4.10
2018-03-16T17:02:44.441Z,4.10
2018-03-16T17:05:16.492Z,4.00
2018-03-16T17:07:42.724Z,4.00
2018-03-16T17:10:09.593Z,4.00
2018-03-16T17:12:35.701Z,4.00
2018-03-16T17:15:01.774Z,4.00
2018-03-16T17:17:27.866Z,3.90
2018-03-16T17:19:56.544Z,3.90
2018-03-16T17:22:23.386Z,3.80
2018-03-16T17:24:50.232Z,3.80
2018-03-16T17:27:18.140Z,3.70
2018-03-16T17:29:44.267Z,3.60
2018-03-16T17:32:10.586Z,3.70
2018-03-16T17:34:36.698Z,3.70
2018-03-16T17:37:06.728Z,3.70
2018-03-16T17:39:32.831Z,3.70
2018-03-16T17:41:59.663Z,3.60
2018-03-16T17:44:25.744Z,3.60
2018-03-16T17:46:51.846Z,3.60
2018-03-16T17:49:18.700Z,3.50
2018-03-16T17:51:44.858Z,3.50
2018-03-16T17:54:12.165Z,3.50
2018-03-16T17:56:38.293Z,3.40
2018-03-16T17:59:05.143Z,3.50
2018-03-16T18:01:31.996Z,3.40
2018-03-16T18:03:58.094Z,3.30
2018-03-16T18:06:24.224Z,3.40
2018-03-16T18:08:51.131Z,3.40
2018-03-16T18:11:17.245Z,3.40
2018-03-16T18:13:43.373Z,3.40
2018-03-16T18:16:10.256Z,3.40
2018-03-16T18:18:36.345Z,3.70
2018-03-16T18:21:02.425Z,3.40
2018-03-16T18:23:28.536Z,3.40
2018-03-16T18:25:55.425Z,3.30
2018-03-16T18:28:21.523Z,3.30
2018-03-16T18:30:47.627Z,3.30
2018-03-16T18:33:16.896Z,3.30
2018-03-16T18:35:43.736Z,3.20
2018-03-16T18:38:09.878Z,3.10
2018-03-16T18:40:38.803Z,3.10
2018-03-16T18:43:05.688Z,3.00
2018-03-16T18:45:31.929Z,3.00
2018-03-16T18:47:58.068Z,3.00
2018-03-16T18:50:24.528Z,3.00
2018-03-16T18:52:50.693Z,3.00
2018-03-16T18:55:17.556Z,2.90
2018-03-16T18:57:43.745Z,2.90
2018-03-16T19:00:09.820Z,2.90
2018-03-16T19:02:35.904Z,2.90
2018-03-16T19:05:01.979Z,2.90
2018-03-16T19:07:28.109Z,2.90
2018-03-16T19:09:54.952Z,2.80
2018-03-16T19:12:21.055Z,2.80
2018-03-16T19:14:47.200Z,2.80
2018-03-16T19:17:13.311Z,2.80
2018-03-16T19:19:39.453Z,2.80
2018-03-16T19:22:05.527Z,2.70
2018-03-16T19:24:31.630Z,2.60
2018-03-16T19:26:57.724Z,2.60
2018-03-16T19:29:26.080Z,2.50
2018-03-16T19:31:52.200Z,2.50
2018-03-16T19:34:18.312Z,2.40
2018-03-16T19:36:45.262Z,2.40
2018-03-16T19:39:12.084Z,2.40
2018-03-16T19:41:38.169Z,2.40
2018-03-16T19:44:05.008Z,2.40
2018-03-16T19:46:31.123Z,2.40
2018-03-16T19:48:59.858Z,2.50
2018-03-16T19:51:25.959Z,2.50
2018-03-16T19:53:52.182Z,2.40
2018-03-16T19:56:18.305Z,2.40
2018-03-16T19:58:45.174Z,2.40
2018-03-16T20:01:12.045Z,2.50
2018-03-16T20:03:38.143Z,2.40
2018-03-16T20:06:04.276Z,2.40
2018-03-16T20:08:30.390Z,2.30
2018-03-16T20:10:56.535Z,2.30
2018-03-16T20:13:22.659Z,2.30
2018-03-16T20:15:49.472Z,2.30
2018-03-16T20:18:22.413Z,2.20
2018-03-16T20:20:48.507Z,2.20
2018-03-16T20:23:14.639Z,2.20
2018-03-16T20:25:40.761Z,2.20
2018-03-16T20:28:06.849Z,2.20
2018-03-16T20:30:33.666Z,2.20
2018-03-16T20:33:04.369Z,2.20
2018-03-16T20:35:30.452Z,2.20
2018-03-16T20:37:56.544Z,2.10
2018-03-16T20:40:22.629Z,2.10
2018-03-16T20:42:49.436Z,2.10
2018-03-16T20:45:15.533Z,2.00
2018-03-16T20:47:41.657Z,2.00
2018-03-16T20:50:07.782Z,2.00
2018-03-16T20:52:34.580Z,2.00
2018-03-16T20:55:03.913Z,2.00
2018-03-16T20:57:29.987Z,2.00
2018-03-16T20:59:56.813Z,2.10
2018-03-16T21:02:22.895Z,2.00
2018-03-16T21:04:49.707Z,1.90
2018-03-16T21:07:15.788Z,1.90
2018-03-16T21:09:42.633Z,2.00
2018-03-16T21:12:08.833Z,1.90
2018-03-16T21:14:34.943Z,2.00
2018-03-16T21:17:01.780Z,2.00
2018-03-16T21:19:28.093Z,2.00
2018-03-16T21:21:54.392Z,2.00
2018-03-16T21:24:21.418Z,2.00
2018-03-16T21:26:47.823Z,2.00
2018-03-16T21:29:14.156Z,2.00
2018-03-16T21:31:40.446Z,2.00
2018-03-16T21:34:06.790Z,1.90
2018-03-16T21:36:33.226Z,1.90
2018-03-16T21:39:01.312Z,2.00
2018-03-16T21:41:27.616Z,2.00
2018-03-16T21:43:53.938Z,1.90
2018-03-16T21:46:20.236Z,1.90
2018-03-16T21:48:46.568Z,1.80
2018-03-16T21:51:12.877Z,1.90
2018-03-16T21:53:39.185Z,2.00
2018-03-16T21:56:05.515Z,2.00
2018-03-16T21:58:31.820Z,1.90
2018-03-16T22:00:58.153Z,1.90
2018-03-16T22:03:24.440Z,2.00
2018-03-16T22:05:50.736Z,2.00
2018-03-16T22:08:17.034Z,1.90
2018-03-16T22:10:45.457Z,1.90
2018-03-16T22:13:11.764Z,1.90
2018-03-16T22:15:38.772Z,1.90
2018-03-16T22:18:05.060Z,1.90
2018-03-16T22:20:31.381Z,2.00
2018-03-16T22:22:57.680Z,1.90
2018-03-16T22:25:23.993Z,1.90
2018-03-16T22:27:50.324Z,1.90
2018-03-16T22:30:17.361Z,1.90
2018-03-16T22:32:43.659Z,1.80
2018-03-16T22:35:10.048Z,1.90
2018-03-16T22:37:36.331Z,1.90
2018-03-16T22:40:02.658Z,1.80
2018-03-16T22:42:29.788Z,1.80
2018-03-16T22:44:57.672Z,1.70
2018-03-16T22:47:24.028Z,1.70
2018-03-16T22:49:51.299Z,1.70
2018-03-16T22:52:17.607Z,1.70
2018-03-16T22:54:50.995Z,1.70
2018-03-16T22:57:17.361Z,1.70
2018-03-16T22:59:43.645Z,1.60
2018-03-16T23:02:09.944Z,1.60
2018-03-16T23:04:36.254Z,1.60
2018-03-16T23:07:02.628Z,1.60
2018-03-16T23:09:30.092Z,1.60
2018-03-16T23:11:56.424Z,1.50
2018-03-16T23:14:23.482Z,1.50
2018-03-16T23:16:50.316Z,1.50
2018-03-16T23:19:16.539Z,1.40
2018-03-16T23:21:44.716Z,1.40
2018-03-16T23:24:11.003Z,1.50
2018-03-16T23:26:37.365Z,1.40
2018-03-16T23:29:04.463Z,1.30
2018-03-16T23:31:30.791Z,1.30
2018-03-16T23:33:57.873Z,1.20
2018-03-16T23:36:24.179Z,1.20
2018-03-16T23:38:50.524Z,1.20
2018-03-16T23:41:16.847Z,1.20
2018-03-16T23:43:43.136Z,1.10
2018-03-16T23:46:09.593Z,1.20
2018-03-16T23:48:36.632Z,1.30
2018-03-16T23:51:02.952Z,1.30
2018-03-16T23:53:30.049Z,1.20
2018-03-16T23:55:56.144Z,1.20
2018-03-16T23:58:22.272Z,1.30
